Chiang Mai, Thailand

07:11 PM +07 on Juni 25, 2017 (GMT +0700)
Mae Ta, Mae Ta, Chiang Mai 50130, Thailand | | Change Station

Elev 1532 ft 18.59 °N, 99.26 °E | Updated 4 seconds ago

Regn
Regn
78.1 °F
Feels Like 81 °F
N
0.2
Vind Växlande Vind from S/SV
Gusts 2.5 miles/tim

Idag
High -- | Low -- °F
--% Chance of Precip.
Yesterday
High -- | Low -- °F
Precip. -- tum
Lufttryck 29.71 tum
Sikt 3.7 miles
Molnigt Few 2500 ft
Mestadels molnigt 3500 ft
Värmeindex 81 °F
Daggpunkt 75 °F
Luftfuktighet 91%
Rainfall 0.05 tum
Snow Depth Not available.
5:46 AM 7:02 PM
Första kvarteret, 3% visible
METAR VTCC 251200Z 26004KT 220V340 6000 RA FEW025CB BKN035 25/24 Q1006 TEMPO TL1220 VRB15G30KT 3000 TSRA FEW020CB BKN030
Lufttryck 29.71 tum
Sikt 3.7 miles
Molnigt Few 2500 ft
Mestadels molnigt 3500 ft
Värmeindex 81 °F
Daggpunkt 75 °F
Luftfuktighet 91%
Rainfall 0.05 tum
Snow Depth Not available.
5:46 AM 7:02 PM
Första kvarteret, 3% visible
METAR VTCC 251200Z 26004KT 220V340 6000 RA FEW025CB BKN035 25/24 Q1006 TEMPO TL1220 VRB15G30KT 3000 TSRA FEW020CB BKN030

Get Severe Weather Alerts

Thanks for signing up!

Be on the lookout for a verification email in your inbox.

You'll start receiving the daily forecast at 6 AM.

×

10-Day Weather Forecast

No radar image for this location.
×

Almanac

Astronomi

Jun. 25, 2017 Rise Set
Actual Time
Civil Twilight
Nautical Twilight
Astronomical Twilight
Månen
Length Of Visible Light
Dagens längd
Tomorrow will be .
, % of the Moon is Illuminated

Today's Extremes

Country Highs Country Lows

Community

WunderPhotos

Category 6

Welcome to Category 6. This is the collective home for Weather Underground's featured writeups by Dr. Jeff Masters (right), Bob Henson (left), Chris Burt, and other regular contributors.

Nearby

Air Quality

  Air Quality AQ Index Pollutant
Not available.

Snödjup

Station Depth Elevation

Earthquake Activity

Stad Distance Mag. Time & Date
Minimum magnitude displayed is 2.5.

Coastal Water Temperatures

Plats Temperatur

Stations

Nearby Weather Stations

Station Location Temp Vindavkylning Daggpunkt Luftfuktighet Vind Precip. Elev Uppdaterad Type